createdAt,value
2023-03-28T00:00:41.275Z,0.00
2023-03-28T00:01:41.251Z,0.00
2023-03-28T00:02:41.292Z,0.00
2023-03-28T00:03:41.311Z,0.00
2023-03-28T00:04:41.289Z,0.00
2023-03-28T00:05:41.248Z,0.00
2023-03-28T00:06:41.223Z,0.00
2023-03-28T00:07:41.156Z,0.00
2023-03-28T00:08:41.135Z,0.00
2023-03-28T00:09:41.196Z,0.00
2023-03-28T00:10:41.117Z,0.00
2023-03-28T00:11:41.111Z,0.00
2023-03-28T00:12:41.094Z,0.00
2023-03-28T00:13:41.077Z,0.00
2023-03-28T00:14:41.090Z,0.00
2023-03-28T00:15:41.089Z,0.00
2023-03-28T00:16:41.058Z,0.00
2023-03-28T00:17:41.078Z,0.00
2023-03-28T00:18:41.038Z,0.00
2023-03-28T00:19:41.037Z,0.00
2023-03-28T00:20:41.014Z,0.00
2023-03-28T00:21:40.986Z,0.00
2023-03-28T00:22:40.969Z,0.00
2023-03-28T00:23:40.951Z,0.00
2023-03-28T00:24:40.983Z,0.00
2023-03-28T00:25:40.920Z,0.00
2023-03-28T00:26:40.916Z,0.00
2023-03-28T00:27:40.904Z,0.00
2023-03-28T00:28:40.904Z,0.00
2023-03-28T00:29:40.905Z,0.00
2023-03-28T00:30:40.862Z,0.00
2023-03-28T00:31:40.914Z,0.00
2023-03-28T00:32:40.864Z,0.00
2023-03-28T00:33:40.825Z,0.00
2023-03-28T00:34:40.866Z,0.00
2023-03-28T00:35:40.804Z,0.00
2023-03-28T00:36:40.779Z,0.00
2023-03-28T00:37:40.770Z,0.00
2023-03-28T00:38:40.777Z,0.00
2023-03-28T00:39:40.767Z,0.00
2023-03-28T00:40:40.745Z,0.00
2023-03-28T00:41:40.750Z,0.00
2023-03-28T00:42:40.747Z,0.00
2023-03-28T00:43:40.697Z,0.00
2023-03-28T00:44:40.722Z,0.00
2023-03-28T00:45:40.668Z,0.00
2023-03-28T00:46:40.721Z,0.00
2023-03-28T00:47:40.689Z,0.00
2023-03-28T00:48:40.634Z,0.00
2023-03-28T00:49:40.670Z,0.00
2023-03-28T00:50:40.603Z,0.00
2023-03-28T00:51:40.578Z,0.00
2023-03-28T00:52:40.582Z,0.00
2023-03-28T00:53:40.579Z,0.00
2023-03-28T00:54:41.353Z,0.00
2023-03-28T00:55:40.543Z,0.00
2023-03-28T00:56:40.550Z,0.00
2023-03-28T00:57:40.567Z,0.00
2023-03-28T00:58:40.521Z,0.00
2023-03-28T00:59:40.534Z,0.00
2023-03-28T01:00:40.479Z,0.00
2023-03-28T01:01:40.476Z,0.00
2023-03-28T01:02:40.602Z,0.00
2023-03-28T01:03:40.555Z,0.00
2023-03-28T01:04:40.457Z,0.00
2023-03-28T01:05:40.426Z,0.00
2023-03-28T01:06:40.426Z,0.00
2023-03-28T01:07:40.367Z,0.00
2023-03-28T01:08:40.399Z,0.00
2023-03-28T01:09:40.404Z,0.00
2023-03-28T01:10:40.337Z,0.00
2023-03-28T01:11:40.328Z,0.00
2023-03-28T01:12:40.323Z,0.00
2023-03-28T01:13:40.312Z,0.00
2023-03-28T01:14:40.336Z,0.00
2023-03-28T01:15:40.272Z,0.00
2023-03-28T01:16:40.310Z,0.00
2023-03-28T01:17:40.252Z,0.00
2023-03-28T01:18:41.006Z,0.00
2023-03-28T01:19:40.253Z,0.00
2023-03-28T01:20:40.269Z,0.00
2023-03-28T01:21:40.202Z,0.00
2023-03-28T01:22:40.304Z,0.00
2023-03-28T01:23:40.164Z,0.00
2023-03-28T01:24:40.217Z,0.00
2023-03-28T01:25:40.154Z,0.00
2023-03-28T01:26:40.134Z,0.00
2023-03-28T01:27:40.110Z,0.00
2023-03-28T01:28:40.110Z,0.00
2023-03-28T01:29:40.126Z,0.00
2023-03-28T01:30:40.078Z,0.00
2023-03-28T01:31:40.145Z,0.00
2023-03-28T01:32:40.107Z,0.00
2023-03-28T01:33:40.041Z,0.00
2023-03-28T01:34:40.070Z,0.00
2023-03-28T01:35:40.080Z,0.00
2023-03-28T01:36:40.003Z,0.00
2023-03-28T01:37:39.987Z,0.00
2023-03-28T01:38:40.011Z,0.00
2023-03-28T01:39:39.996Z,0.00
2023-03-28T01:40:40.007Z,0.00
2023-03-28T01:41:39.950Z,0.00
2023-03-28T01:42:39.939Z,0.00
2023-03-28T01:43:39.959Z,0.00
2023-03-28T01:44:39.939Z,0.00
2023-03-28T01:45:39.940Z,0.00
2023-03-28T01:46:39.894Z,0.00
2023-03-28T01:47:39.902Z,0.00
2023-03-28T01:48:39.872Z,0.00
2023-03-28T01:49:39.877Z,0.00
2023-03-28T01:50:39.841Z,0.00
2023-03-28T01:51:39.814Z,0.00
2023-03-28T01:52:39.798Z,0.00
2023-03-28T01:53:39.777Z,0.00
2023-03-28T01:54:39.812Z,0.00
2023-03-28T01:55:41.826Z,0.00
2023-03-28T01:56:39.857Z,0.00
2023-03-28T01:57:39.881Z,0.00
2023-03-28T01:58:39.732Z,0.00
2023-03-28T01:59:39.736Z,0.00
2023-03-28T02:00:39.720Z,0.00
2023-03-28T02:01:39.731Z,0.00
2023-03-28T02:02:39.714Z,0.00
2023-03-28T02:03:39.743Z,0.00
2023-03-28T02:04:39.677Z,0.00
2023-03-28T02:05:39.645Z,0.00
2023-03-28T02:06:39.620Z,0.00
2023-03-28T02:07:39.606Z,0.00
2023-03-28T02:08:39.605Z,0.00
2023-03-28T02:09:39.605Z,0.00
2023-03-28T02:10:39.694Z,0.00
2023-03-28T02:11:39.545Z,0.00
2023-03-28T02:12:39.593Z,0.00
2023-03-28T02:13:39.557Z,0.00
2023-03-28T02:14:39.591Z,0.00
2023-03-28T02:15:39.526Z,0.00
2023-03-28T02:16:39.543Z,0.00
2023-03-28T02:17:39.494Z,0.00
2023-03-28T02:18:39.473Z,0.00
2023-03-28T02:19:39.478Z,0.00
2023-03-28T02:20:39.444Z,0.00
2023-03-28T02:21:39.436Z,0.00
2023-03-28T02:22:39.437Z,0.00
2023-03-28T02:23:39.413Z,0.00
2023-03-28T02:24:39.452Z,0.00
2023-03-28T02:25:39.399Z,0.00
2023-03-28T02:26:39.364Z,0.00
2023-03-28T02:27:39.426Z,0.00
2023-03-28T02:28:39.357Z,0.00
2023-03-28T02:29:39.353Z,0.00
2023-03-28T02:30:39.323Z,0.00
2023-03-28T02:31:39.339Z,0.00
2023-03-28T02:32:39.342Z,0.00
2023-03-28T02:33:40.386Z,0.00
2023-03-28T02:34:39.330Z,0.00
2023-03-28T02:35:39.286Z,0.00
2023-03-28T02:36:39.245Z,0.00
2023-03-28T02:37:39.317Z,0.00
2023-03-28T02:38:39.232Z,0.00
2023-03-28T02:39:39.212Z,0.00
2023-03-28T02:40:39.249Z,0.00
2023-03-28T02:41:39.217Z,0.00
2023-03-28T02:42:39.157Z,0.00
2023-03-28T02:43:39.174Z,0.00
2023-03-28T02:44:39.150Z,0.00
2023-03-28T02:45:39.187Z,0.00
2023-03-28T02:46:39.136Z,0.00
2023-03-28T02:47:39.147Z,0.00
2023-03-28T02:48:39.087Z,0.00
2023-03-28T02:49:49.616Z,0.00
2023-03-28T02:50:40.082Z,0.00
2023-03-28T02:51:39.050Z,0.00
2023-03-28T02:52:39.055Z,0.00
2023-03-28T02:53:39.044Z,0.00
2023-03-28T02:54:39.015Z,0.00
2023-03-28T02:55:39.053Z,0.00
2023-03-28T02:56:38.999Z,0.00
2023-03-28T02:57:38.992Z,0.00
2023-03-28T02:58:39.013Z,0.00
2023-03-28T02:59:38.933Z,0.00
2023-03-28T03:00:38.977Z,0.00
2023-03-28T03:01:38.992Z,0.00
2023-03-28T03:02:38.950Z,0.00
2023-03-28T03:03:38.971Z,0.00
2023-03-28T03:04:38.883Z,0.00
2023-03-28T03:05:38.939Z,0.00
2023-03-28T03:06:38.857Z,0.00
2023-03-28T03:07:38.854Z,0.00
2023-03-28T03:08:38.841Z,0.00
2023-03-28T03:09:38.859Z,0.00
2023-03-28T03:10:38.874Z,0.00
2023-03-28T03:11:38.783Z,0.00
2023-03-28T03:12:38.793Z,0.00
2023-03-28T03:13:38.764Z,0.00
2023-03-28T03:14:38.761Z,0.00
2023-03-28T03:15:38.784Z,0.00
2023-03-28T03:16:38.841Z,0.00
2023-03-28T03:17:38.788Z,0.00
2023-03-28T03:18:38.733Z,0.00
2023-03-28T03:19:38.695Z,0.00
2023-03-28T03:20:38.705Z,0.00
2023-03-28T03:21:38.680Z,0.00
2023-03-28T03:22:38.727Z,0.00
2023-03-28T03:23:38.633Z,0.00
2023-03-28T03:24:38.651Z,0.00
2023-03-28T03:25:38.635Z,0.00
2023-03-28T03:26:38.603Z,0.00
2023-03-28T03:27:38.579Z,0.00
2023-03-28T03:28:38.568Z,0.00
2023-03-28T03:29:39.400Z,0.00
2023-03-28T03:30:38.618Z,0.00
2023-03-28T03:31:38.571Z,0.00
2023-03-28T03:32:38.541Z,0.00
2023-03-28T03:33:38.538Z,0.00
2023-03-28T03:34:38.490Z,0.00
2023-03-28T03:35:38.614Z,0.00
2023-03-28T03:36:38.504Z,0.00
2023-03-28T03:37:38.455Z,0.00
2023-03-28T03:38:38.444Z,0.00
2023-03-28T03:39:38.508Z,0.00
2023-03-28T03:40:38.482Z,0.00
2023-03-28T03:41:38.394Z,0.00
2023-03-28T03:42:38.424Z,0.00
2023-03-28T03:43:38.399Z,0.00
2023-03-28T03:44:38.376Z,0.00
2023-03-28T03:45:38.424Z,0.00
2023-03-28T03:46:38.375Z,0.00
2023-03-28T03:47:38.373Z,0.00
2023-03-28T03:48:38.318Z,0.00
2023-03-28T03:49:39.290Z,0.00
2023-03-28T03:50:38.314Z,0.00
2023-03-28T03:51:38.291Z,0.00
2023-03-28T03:52:38.284Z,0.00
2023-03-28T03:53:38.249Z,0.00
2023-03-28T03:54:38.490Z,0.00
2023-03-28T03:55:38.244Z,0.00
2023-03-28T03:56:38.238Z,0.00
2023-03-28T03:57:38.197Z,0.00
2023-03-28T03:58:38.203Z,0.00
2023-03-28T03:59:38.158Z,0.00
2023-03-28T04:00:38.189Z,0.00
2023-03-28T04:01:38.156Z,0.00
2023-03-28T04:02:38.176Z,0.00
2023-03-28T04:03:38.137Z,0.00
2023-03-28T04:04:38.150Z,0.00
2023-03-28T04:05:38.113Z,0.00
2023-03-28T04:06:38.095Z,0.00
2023-03-28T04:07:38.068Z,0.00
2023-03-28T04:08:38.110Z,0.00
2023-03-28T04:09:38.056Z,0.00
2023-03-28T04:10:38.076Z,0.00
2023-03-28T04:11:38.229Z,0.00
2023-03-28T04:12:38.008Z,0.00
2023-03-28T04:13:37.997Z,0.00
2023-03-28T04:14:37.978Z,0.00
2023-03-28T04:15:38.036Z,0.00
2023-03-28T04:16:40.307Z,0.00
2023-03-28T04:17:38.031Z,0.00
2023-03-28T04:18:37.915Z,0.00
2023-03-28T04:19:37.926Z,0.00
2023-03-28T04:20:37.929Z,0.00
2023-03-28T04:21:37.886Z,0.00
2023-03-28T04:22:45.657Z,0.00
2023-03-28T04:23:38.870Z,0.00
2023-03-28T04:24:37.862Z,0.00
2023-03-28T04:25:37.929Z,0.00
2023-03-28T04:26:37.826Z,0.00
2023-03-28T04:27:37.822Z,0.00
2023-03-28T04:28:37.782Z,0.00
2023-03-28T04:29:37.784Z,0.00
2023-03-28T04:30:37.815Z,0.00
2023-03-28T04:31:37.870Z,0.00
2023-03-28T04:32:37.793Z,0.00
2023-03-28T04:33:38.003Z,0.00
2023-03-28T04:34:39.019Z,0.00
2023-03-28T04:35:37.809Z,0.00
2023-03-28T04:36:37.695Z,0.00
2023-03-28T04:37:37.832Z,0.00
2023-03-28T04:38:37.614Z,0.00
2023-03-28T04:39:37.665Z,0.00
2023-03-28T04:40:37.634Z,0.00
2023-03-28T04:41:37.638Z,0.00
2023-03-28T04:42:37.557Z,0.00
2023-03-28T04:43:37.606Z,0.00
2023-03-28T04:44:37.555Z,0.00
2023-03-28T04:45:37.595Z,0.00
2023-03-28T04:46:37.564Z,0.00
2023-03-28T04:47:37.612Z,0.00
2023-03-28T04:48:37.488Z,0.00
2023-03-28T04:49:37.501Z,0.00
2023-03-28T04:50:37.489Z,0.00
2023-03-28T04:51:37.460Z,0.00
2023-03-28T04:52:37.492Z,0.00
2023-03-28T04:53:37.426Z,0.00
2023-03-28T04:54:37.406Z,0.00
2023-03-28T04:55:37.426Z,0.00
2023-03-28T04:56:37.427Z,0.00
2023-03-28T04:57:37.370Z,0.00
2023-03-28T04:58:37.354Z,0.00
2023-03-28T04:59:37.379Z,0.00
2023-03-28T05:00:37.391Z,0.00
2023-03-28T05:01:37.388Z,0.00
2023-03-28T05:02:37.393Z,0.00
2023-03-28T05:03:37.368Z,0.00
2023-03-28T05:04:37.284Z,0.00
2023-03-28T05:05:37.318Z,0.00
2023-03-28T05:06:37.259Z,0.00
2023-03-28T05:07:37.245Z,0.00
2023-03-28T05:08:37.272Z,0.00
2023-03-28T05:09:37.217Z,0.00
2023-03-28T05:10:37.230Z,0.00
2023-03-28T05:11:37.199Z,0.00
2023-03-28T05:12:37.204Z,0.00
2023-03-28T05:13:37.237Z,0.00
2023-03-28T05:14:37.147Z,5.62
2023-03-28T05:15:37.179Z,5.62
2023-03-28T05:16:37.202Z,5.62
2023-03-28T05:17:37.175Z,5.62
2023-03-28T05:18:37.094Z,5.62
2023-03-28T05:19:37.093Z,5.62
2023-03-28T05:20:37.134Z,5.62
2023-03-28T05:21:37.082Z,5.62
2023-03-28T05:22:37.053Z,5.62
2023-03-28T05:23:37.034Z,5.62
2023-03-28T05:24:37.079Z,5.62
2023-03-28T05:25:37.061Z,5.62
2023-03-28T05:26:37.015Z,5.62
2023-03-28T05:27:37.001Z,11.25
2023-03-28T05:28:36.963Z,11.25
2023-03-28T05:29:36.954Z,11.25
2023-03-28T05:30:36.986Z,11.25
2023-03-28T05:31:37.146Z,11.25
2023-03-28T05:32:36.992Z,11.25
2023-03-28T05:33:36.971Z,16.88
2023-03-28T05:34:36.923Z,16.88
2023-03-28T05:35:37.093Z,16.88
2023-03-28T05:36:36.936Z,16.88
2023-03-28T05:37:39.782Z,16.88
2023-03-28T05:38:36.837Z,16.88
2023-03-28T05:39:36.837Z,22.50
2023-03-28T05:40:36.840Z,22.50
2023-03-28T05:41:36.826Z,22.50
2023-03-28T05:42:36.811Z,22.50
2023-03-28T05:43:36.777Z,22.50
2023-03-28T05:44:36.767Z,22.50
2023-03-28T05:45:36.778Z,22.50
2023-03-28T05:46:36.870Z,22.50
2023-03-28T05:47:36.792Z,22.50
2023-03-28T05:48:36.771Z,22.50
2023-03-28T05:49:36.701Z,28.12
2023-03-28T05:50:36.684Z,28.12
2023-03-28T05:51:36.699Z,28.12
2023-03-28T05:52:36.655Z,28.12
2023-03-28T05:53:36.668Z,33.75
2023-03-28T05:54:36.648Z,33.75
2023-03-28T05:55:36.650Z,33.75
2023-03-28T05:56:36.696Z,33.75
2023-03-28T05:57:36.612Z,33.75
2023-03-28T05:58:36.599Z,33.75
2023-03-28T05:59:36.611Z,33.75
2023-03-28T06:00:36.564Z,33.75
2023-03-28T06:01:36.625Z,39.38
2023-03-28T06:02:36.552Z,39.38
2023-03-28T06:03:37.362Z,45.00
2023-03-28T06:04:36.536Z,45.00
2023-03-28T06:05:36.516Z,45.00
2023-03-28T06:06:36.509Z,50.62
2023-03-28T06:07:42.472Z,56.25
2023-03-28T06:08:38.420Z,50.62
2023-03-28T06:09:36.457Z,50.62
2023-03-28T06:10:36.432Z,50.62
2023-03-28T06:11:36.458Z,50.62
2023-03-28T06:12:36.403Z,50.62
2023-03-28T06:13:36.402Z,50.62
2023-03-28T06:14:36.381Z,56.25
2023-03-28T06:15:36.382Z,56.25
2023-03-28T06:16:36.398Z,56.25
2023-03-28T06:17:36.490Z,61.88
2023-03-28T06:18:36.341Z,61.88
2023-03-28T06:19:36.336Z,61.88
2023-03-28T06:20:36.329Z,56.25
2023-03-28T06:21:36.351Z,61.88
2023-03-28T06:22:36.278Z,61.88
2023-03-28T06:23:36.265Z,56.25
2023-03-28T06:24:36.248Z,56.25
2023-03-28T06:25:36.246Z,56.25
2023-03-28T06:26:36.282Z,50.62
2023-03-28T06:27:36.229Z,56.25
2023-03-28T06:28:36.228Z,56.25
2023-03-28T06:29:36.204Z,61.88
2023-03-28T06:30:36.173Z,67.50
2023-03-28T06:31:36.262Z,67.50
2023-03-28T06:32:36.171Z,67.50
2023-03-28T06:33:36.142Z,61.88
2023-03-28T06:34:36.169Z,56.25
2023-03-28T06:35:36.257Z,61.88
2023-03-28T06:36:36.134Z,61.88
2023-03-28T06:37:36.119Z,61.88
2023-03-28T06:38:36.087Z,67.50
2023-03-28T06:39:36.070Z,67.50
2023-03-28T06:40:36.045Z,67.50
2023-03-28T06:41:36.076Z,67.50
2023-03-28T06:42:36.030Z,67.50
2023-03-28T06:43:36.016Z,73.12
2023-03-28T06:44:35.988Z,61.88
2023-03-28T06:45:36.022Z,67.50
2023-03-28T06:46:36.057Z,67.50
2023-03-28T06:47:36.053Z,73.12
2023-03-28T06:48:36.566Z,90.00
2023-03-28T06:49:35.946Z,73.12
2023-03-28T06:50:35.938Z,73.12
2023-03-28T06:51:35.967Z,67.50
2023-03-28T06:52:35.893Z,67.50
2023-03-28T06:53:35.893Z,73.12
2023-03-28T06:54:35.952Z,78.75
2023-03-28T06:55:35.873Z,78.75
2023-03-28T06:56:35.930Z,78.75
2023-03-28T06:57:35.837Z,67.50
2023-03-28T06:58:35.854Z,67.50
2023-03-28T06:59:35.911Z,67.50
2023-03-28T07:00:36.048Z,78.75
2023-03-28T07:01:35.979Z,78.75
2023-03-28T07:02:35.975Z,84.38
2023-03-28T07:03:36.352Z,84.38
2023-03-28T07:04:35.792Z,84.38
2023-03-28T07:05:35.826Z,84.38
2023-03-28T07:06:35.745Z,78.75
2023-03-28T07:07:35.717Z,84.38
2023-03-28T07:08:35.740Z,90.00
2023-03-28T07:09:35.749Z,90.00
2023-03-28T07:10:35.667Z,90.00
2023-03-28T07:11:35.697Z,84.38
2023-03-28T07:12:35.645Z,84.38
2023-03-28T07:13:35.625Z,84.38
2023-03-28T07:14:35.616Z,84.38
2023-03-28T07:15:35.594Z,84.38
2023-03-28T07:16:35.676Z,90.00
2023-03-28T07:17:35.658Z,90.00
2023-03-28T07:18:35.563Z,90.00
2023-03-28T07:19:35.672Z,90.00
2023-03-28T07:20:35.604Z,90.00
2023-03-28T07:21:35.558Z,90.00
2023-03-28T07:22:35.513Z,95.62
2023-03-28T07:23:35.516Z,95.62
2023-03-28T07:24:35.486Z,95.62
2023-03-28T07:25:35.519Z,95.62
2023-03-28T07:26:35.687Z,95.62
2023-03-28T07:27:35.455Z,101.25
2023-03-28T07:28:35.469Z,95.62
2023-03-28T07:29:35.432Z,95.62
2023-03-28T07:30:35.420Z,95.62
2023-03-28T07:31:35.504Z,84.38
2023-03-28T07:32:47.513Z,101.25
2023-03-28T07:33:37.759Z,101.25
2023-03-28T07:34:35.365Z,101.25
2023-03-28T07:35:35.370Z,101.25
2023-03-28T07:36:35.507Z,106.88
2023-03-28T07:37:35.319Z,101.25
2023-03-28T07:38:35.333Z,106.88
2023-03-28T07:39:35.346Z,106.88
2023-03-28T07:40:35.270Z,106.88
2023-03-28T07:41:35.272Z,106.88
2023-03-28T07:42:35.335Z,106.88
2023-03-28T07:43:35.563Z,112.50
2023-03-28T07:44:35.233Z,112.50
2023-03-28T07:45:35.246Z,112.50
2023-03-28T07:46:35.315Z,118.12
2023-03-28T07:47:35.221Z,118.12
2023-03-28T07:48:35.181Z,118.12
2023-03-28T07:49:35.191Z,118.12
2023-03-28T07:50:35.164Z,112.50
2023-03-28T07:51:35.278Z,118.12
2023-03-28T07:52:35.119Z,118.12
2023-03-28T07:53:35.113Z,118.12
2023-03-28T07:54:35.152Z,118.12
2023-03-28T07:55:39.453Z,118.12
2023-03-28T07:56:36.121Z,118.12
2023-03-28T07:57:35.250Z,123.75
2023-03-28T07:58:35.963Z,123.75
2023-03-28T07:59:35.091Z,123.75
2023-03-28T08:00:35.045Z,118.12
2023-03-28T08:01:35.051Z,123.75
2023-03-28T08:02:35.150Z,123.75
2023-03-28T08:03:35.177Z,129.38
2023-03-28T08:04:35.012Z,129.38
2023-03-28T08:05:35.042Z,129.38
2023-03-28T08:06:38.077Z,129.38
2023-03-28T08:07:35.074Z,129.38
2023-03-28T08:08:35.072Z,129.38
2023-03-28T08:09:34.934Z,135.00
2023-03-28T08:10:34.906Z,135.00
2023-03-28T08:11:34.918Z,135.00
2023-03-28T08:12:34.896Z,135.00
2023-03-28T08:13:34.855Z,135.00
2023-03-28T08:14:34.828Z,135.00
2023-03-28T08:15:34.845Z,140.62
2023-03-28T08:16:35.105Z,140.62
2023-03-28T08:17:34.846Z,140.62
2023-03-28T08:18:34.853Z,140.62
2023-03-28T08:19:35.227Z,140.62
2023-03-28T08:20:35.022Z,140.62
2023-03-28T08:21:34.957Z,140.62
2023-03-28T08:22:34.730Z,140.62
2023-03-28T08:23:38.161Z,146.25
2023-03-28T08:24:36.043Z,140.62
2023-03-28T08:25:34.726Z,140.62
2023-03-28T08:26:34.923Z,140.62
2023-03-28T08:27:34.740Z,140.62
2023-03-28T08:28:34.687Z,140.62
2023-03-28T08:29:34.632Z,140.62
2023-03-28T08:30:34.646Z,140.62
2023-03-28T08:31:34.699Z,146.25
2023-03-28T08:32:34.824Z,146.25
2023-03-28T08:33:34.595Z,146.25
2023-03-28T08:34:34.593Z,146.25
2023-03-28T08:35:34.575Z,146.25
2023-03-28T08:36:34.609Z,146.25
2023-03-28T08:37:34.531Z,151.88
2023-03-28T08:38:34.652Z,151.88
2023-03-28T08:39:34.552Z,151.88
2023-03-28T08:40:34.704Z,151.88
2023-03-28T08:41:34.734Z,151.88
2023-03-28T08:42:34.711Z,151.88
2023-03-28T08:43:34.973Z,151.88
2023-03-28T08:44:34.481Z,157.50
2023-03-28T08:45:34.653Z,157.50
2023-03-28T08:46:34.571Z,157.50
2023-03-28T08:47:34.741Z,157.50
2023-03-28T08:48:34.410Z,157.50
2023-03-28T08:49:35.269Z,157.50
2023-03-28T08:50:34.409Z,163.12
2023-03-28T08:51:34.350Z,163.12
2023-03-28T08:52:34.398Z,163.12
2023-03-28T08:53:34.399Z,163.12
2023-03-28T08:54:34.421Z,163.12
2023-03-28T08:55:34.331Z,163.12
2023-03-28T08:56:34.299Z,163.12
2023-03-28T08:57:34.304Z,163.12
2023-03-28T08:58:34.258Z,163.12
2023-03-28T08:59:34.278Z,168.75
2023-03-28T09:00:34.717Z,168.75
2023-03-28T09:01:34.369Z,168.75
2023-03-28T09:02:34.798Z,168.75
2023-03-28T09:03:35.265Z,168.75
2023-03-28T09:04:34.180Z,163.12
2023-03-28T09:05:34.397Z,151.88
2023-03-28T09:06:34.164Z,151.88
2023-03-28T09:07:34.173Z,168.75
2023-03-28T09:08:34.160Z,174.38
2023-03-28T09:09:34.311Z,174.38
2023-03-28T09:10:34.125Z,168.75
2023-03-28T09:11:34.194Z,168.75
2023-03-28T09:12:34.127Z,163.12
2023-03-28T09:13:34.183Z,168.75
2023-03-28T09:14:34.081Z,180.00
2023-03-28T09:15:34.778Z,185.62
2023-03-28T09:16:34.123Z,180.00
2023-03-28T09:17:34.147Z,185.62
2023-03-28T09:18:34.066Z,185.62
2023-03-28T09:19:45.294Z,191.25
2023-03-28T09:20:35.082Z,191.25
2023-03-28T09:21:33.960Z,196.88
2023-03-28T09:22:33.976Z,191.25
2023-03-28T09:23:34.117Z,191.25
2023-03-28T09:24:34.082Z,196.88
2023-03-28T09:25:33.915Z,168.75
2023-03-28T09:26:33.911Z,202.50
2023-03-28T09:27:33.983Z,191.25
2023-03-28T09:28:33.876Z,191.25
2023-03-28T09:29:33.955Z,101.25
2023-03-28T09:30:33.862Z,185.62
2023-03-28T09:31:33.903Z,185.62
2023-03-28T09:32:33.910Z,191.25
2023-03-28T09:33:33.819Z,191.25
2023-03-28T09:34:33.859Z,196.88
2023-03-28T09:35:34.034Z,202.50
2023-03-28T09:36:45.505Z,208.12
2023-03-28T09:37:35.325Z,213.75
2023-03-28T09:38:33.734Z,219.38
2023-03-28T09:39:33.723Z,225.00
2023-03-28T09:40:33.710Z,225.00
2023-03-28T09:41:33.689Z,230.62
2023-03-28T09:42:33.723Z,236.25
2023-03-28T09:43:33.681Z,236.25
2023-03-28T09:44:40.950Z,236.25
2023-03-28T09:45:34.721Z,236.25
2023-03-28T09:46:33.637Z,174.38
2023-03-28T09:47:34.112Z,129.38
2023-03-28T09:48:33.653Z,118.12
2023-03-28T09:49:33.626Z,118.12
2023-03-28T09:50:33.625Z,101.25
2023-03-28T09:51:33.558Z,95.62
2023-03-28T09:52:33.583Z,95.62
2023-03-28T09:53:33.564Z,95.62
2023-03-28T09:54:33.616Z,90.00
2023-03-28T09:55:34.666Z,95.62
2023-03-28T09:56:33.514Z,106.88
2023-03-28T09:57:33.534Z,123.75
2023-03-28T09:58:33.482Z,213.75
2023-03-28T09:59:33.467Z,219.38
2023-03-28T10:00:33.488Z,191.25
2023-03-28T10:01:33.519Z,135.00
2023-03-28T10:02:33.497Z,140.62
2023-03-28T10:03:33.403Z,157.50
2023-03-28T10:04:33.514Z,163.12
2023-03-28T10:05:33.413Z,163.12
2023-03-28T10:06:33.376Z,163.12
2023-03-28T10:07:33.400Z,168.75
2023-03-28T10:08:33.431Z,163.12
2023-03-28T10:09:33.356Z,157.50
2023-03-28T10:10:33.562Z,151.88
2023-03-28T10:11:33.300Z,146.25
2023-03-28T10:12:33.641Z,146.25
2023-03-28T10:13:33.283Z,151.88
2023-03-28T10:14:33.401Z,213.75
2023-03-28T10:15:33.505Z,213.75
2023-03-28T10:16:33.250Z,241.88
2023-03-28T10:17:35.417Z,241.88
2023-03-28T10:18:33.243Z,247.50
2023-03-28T10:19:33.214Z,253.12
2023-03-28T10:20:33.218Z,247.50
2023-03-28T10:21:33.178Z,230.62
2023-03-28T10:22:33.199Z,264.38
2023-03-28T10:23:33.137Z,264.38
2023-03-28T10:24:33.872Z,270.00
2023-03-28T10:25:33.136Z,264.38
2023-03-28T10:26:33.113Z,264.38
2023-03-28T10:27:33.114Z,281.25
2023-03-28T10:28:33.124Z,286.88
2023-03-28T10:29:33.069Z,225.00
2023-03-28T10:30:33.067Z,264.38
2023-03-28T10:31:33.172Z,315.00
2023-03-28T10:32:33.092Z,292.50
2023-03-28T10:33:33.006Z,208.12
2023-03-28T10:34:33.003Z,185.62
2023-03-28T10:35:33.005Z,168.75
2023-03-28T10:36:32.980Z,157.50
2023-03-28T10:37:33.287Z,140.62
2023-03-28T10:38:32.959Z,151.88
2023-03-28T10:39:32.938Z,174.38
2023-03-28T10:40:32.970Z,196.88
2023-03-28T10:41:32.916Z,208.12
2023-03-28T10:42:32.917Z,196.88
2023-03-28T10:43:32.901Z,191.25
2023-03-28T10:44:32.876Z,196.88
2023-03-28T10:45:32.885Z,180.00
2023-03-28T10:46:33.054Z,174.38
2023-03-28T10:47:32.919Z,258.75
2023-03-28T10:48:32.819Z,236.25
2023-03-28T10:49:32.829Z,230.62
2023-03-28T10:50:34.727Z,236.25
2023-03-28T10:51:32.802Z,236.25
2023-03-28T10:52:32.804Z,208.12
2023-03-28T10:53:32.857Z,163.12
2023-03-28T10:54:32.820Z,168.75
2023-03-28T10:55:32.865Z,163.12
2023-03-28T10:56:32.792Z,157.50
2023-03-28T10:57:32.814Z,151.88
2023-03-28T10:58:32.710Z,151.88
2023-03-28T10:59:32.665Z,151.88
2023-03-28T11:00:32.665Z,151.88
2023-03-28T11:01:33.756Z,151.88
2023-03-28T11:02:32.862Z,157.50
2023-03-28T11:03:32.755Z,163.12
2023-03-28T11:04:32.731Z,168.75
2023-03-28T11:05:32.701Z,180.00
2023-03-28T11:06:32.704Z,185.62
2023-03-28T11:07:32.589Z,191.25
2023-03-28T11:08:32.574Z,202.50
2023-03-28T11:09:32.589Z,191.25
2023-03-28T11:10:32.596Z,180.00
2023-03-28T11:11:32.590Z,191.25
2023-03-28T11:12:40.939Z,202.50
2023-03-28T11:13:33.643Z,196.88
2023-03-28T11:14:32.477Z,196.88
2023-03-28T11:15:32.531Z,202.50
2023-03-28T11:16:32.530Z,202.50
2023-03-28T11:17:32.490Z,191.25
2023-03-28T11:18:32.917Z,180.00
2023-03-28T11:19:32.431Z,168.75
2023-03-28T11:20:32.415Z,163.12
2023-03-28T11:21:32.526Z,146.25
2023-03-28T11:22:32.488Z,135.00
2023-03-28T11:23:32.396Z,151.88
2023-03-28T11:24:32.962Z,146.25
2023-03-28T11:25:33.780Z,168.75
2023-03-28T11:26:32.326Z,202.50
2023-03-28T11:27:32.326Z,157.50
2023-03-28T11:28:32.500Z,168.75
2023-03-28T11:29:42.581Z,180.00
2023-03-28T11:30:33.265Z,196.88
2023-03-28T11:31:32.444Z,202.50
2023-03-28T11:32:32.606Z,219.38
2023-03-28T11:33:32.232Z,236.25
2023-03-28T11:34:32.238Z,270.00
2023-03-28T11:35:33.101Z,225.00
2023-03-28T11:36:32.250Z,213.75
2023-03-28T11:37:32.394Z,208.12
2023-03-28T11:38:32.156Z,202.50
2023-03-28T11:39:33.044Z,196.88
2023-03-28T11:40:32.837Z,196.88
2023-03-28T11:41:32.370Z,208.12
2023-03-28T11:42:32.743Z,247.50
2023-03-28T11:43:32.254Z,225.00
2023-03-28T11:44:32.369Z,236.25
2023-03-28T11:45:49.502Z,275.62
2023-03-28T11:46:33.217Z,241.88
2023-03-28T11:47:32.351Z,241.88
2023-03-28T11:48:32.157Z,241.88
2023-03-28T11:49:32.015Z,230.62
2023-03-28T11:50:32.013Z,225.00
2023-03-28T11:51:32.267Z,213.75
2023-03-28T11:52:33.267Z,208.12
2023-03-28T11:53:32.213Z,208.12
2023-03-28T11:54:32.263Z,202.50
2023-03-28T11:55:32.158Z,196.88
2023-03-28T11:56:31.934Z,185.62
2023-03-28T11:57:32.125Z,174.38
2023-03-28T11:58:31.977Z,174.38
2023-03-28T11:59:31.892Z,180.00
2023-03-28T12:00:33.779Z,185.62
2023-03-28T12:01:32.042Z,202.50
2023-03-28T12:02:31.998Z,196.88
2023-03-28T12:03:31.905Z,202.50
2023-03-28T12:04:31.894Z,208.12
2023-03-28T12:05:31.926Z,213.75
2023-03-28T12:06:31.801Z,225.00
2023-03-28T12:07:31.789Z,230.62
2023-03-28T12:08:31.799Z,236.25
2023-03-28T12:09:31.779Z,241.88
2023-03-28T12:10:31.739Z,241.88
2023-03-28T12:11:31.718Z,241.88
2023-03-28T12:12:31.770Z,241.88
2023-03-28T12:13:31.783Z,236.25
2023-03-28T12:14:31.749Z,247.50
2023-03-28T12:15:31.671Z,230.62
2023-03-28T12:16:31.729Z,219.38
2023-03-28T12:17:31.833Z,213.75
2023-03-28T12:18:31.682Z,213.75
2023-03-28T12:19:31.625Z,213.75
2023-03-28T12:20:31.631Z,213.75
2023-03-28T12:21:31.594Z,213.75
2023-03-28T12:22:32.599Z,230.62
2023-03-28T12:23:31.813Z,236.25
2023-03-28T12:24:31.661Z,230.62
2023-03-28T12:25:31.537Z,230.62
2023-03-28T12:26:31.535Z,213.75
2023-03-28T12:27:31.540Z,208.12
2023-03-28T12:28:31.533Z,196.88
2023-03-28T12:29:31.573Z,191.25
2023-03-28T12:30:31.484Z,202.50
2023-03-28T12:31:31.596Z,208.12
2023-03-28T12:32:31.545Z,213.75
2023-03-28T12:33:31.577Z,196.88
2023-03-28T12:34:31.418Z,202.50
2023-03-28T12:35:31.469Z,219.38
2023-03-28T12:36:31.403Z,208.12
2023-03-28T12:37:31.377Z,208.12
2023-03-28T12:38:31.400Z,219.38
2023-03-28T12:39:31.365Z,225.00
2023-03-28T12:40:31.326Z,225.00
2023-03-28T12:41:31.348Z,264.38
2023-03-28T12:42:31.314Z,247.50
2023-03-28T12:43:31.343Z,286.88
2023-03-28T12:44:31.450Z,298.12
2023-03-28T12:45:31.272Z,247.50
2023-03-28T12:46:31.319Z,213.75
2023-03-28T12:47:31.310Z,208.12
2023-03-28T12:48:31.259Z,213.75
2023-03-28T12:49:31.469Z,208.12
2023-03-28T12:50:31.219Z,236.25
2023-03-28T12:51:31.323Z,275.62
2023-03-28T12:52:31.183Z,281.25